Time;durP1;ratioP1;P1;durP2;ratioP2;P2;SDS_P1;SDS_P2;PMS_P1;PMS_P2;Temp;Humidity;BMP_temperature;BMP_pressure;BME280_temperature;BME280_humidity;BME280_pressure;Samples;Min_cycle;Max_cycle;Signal;HPM_P1;HPM_P2
2022/09/12 00:00:10;;;;;;;2.10;0.60;;;;;;;-145.70;100.00;63560.63;5075048;28;20021;-61
2022/09/12 00:02:35;;;;;;;2.72;1.00;;;;;;;-145.70;100.00;63560.63;5077759;28;20123;-61
2022/09/12 00:05:00;;;;;;;1.85;0.50;;;;;;;-145.70;100.00;63560.63;5089133;28;20061;-61
2022/09/12 00:07:26;;;;;;;3.65;0.70;;;;;;;-145.70;100.00;63560.63;5071015;28;20619;-62
2022/09/12 00:09:51;;;;;;;4.05;0.60;;;;;;;-145.70;100.00;63560.63;5112143;27;20089;-61
2022/09/12 00:12:17;;;;;;;2.10;0.57;;;;;;;-145.70;100.00;63560.63;5067549;28;20059;-62
2022/09/12 00:14:42;;;;;;;1.63;0.55;;;;;;;-145.70;100.00;63560.63;5070886;28;20029;-61
2022/09/12 00:17:08;;;;;;;1.42;0.52;;;;;;;-145.70;100.00;63560.63;5072506;28;20028;-61
2022/09/12 00:19:33;;;;;;;2.70;0.60;;;;;;;-145.70;100.00;63560.63;5100198;27;20060;-62
2022/09/12 00:21:59;;;;;;;2.10;0.60;;;;;;;-145.70;100.00;63560.63;5059009;28;20060;-61
2022/09/12 00:24:24;;;;;;;2.75;0.68;;;;;;;-145.70;100.00;63560.63;5072897;28;20516;-61
2022/09/12 00:26:50;;;;;;;1.73;0.65;;;;;;;-145.70;100.00;63560.63;5081840;28;20911;-61
2022/09/12 00:29:20;;;;;;;2.10;0.63;;;;;;;-145.70;100.00;63560.63;5051560;28;20044;-61
2022/09/12 00:31:45;;;;;;;2.00;0.70;;;;;;;-145.70;100.00;63560.63;5057887;28;20313;-61
2022/09/12 00:34:11;;;;;;;2.22;0.60;;;;;;;-145.70;100.00;63560.63;5071214;28;20128;-62
2022/09/12 00:36:38;;;;;;;1.88;0.68;;;;;;;-145.70;100.00;63560.63;5051816;28;21887;-61
2022/09/12 00:39:04;;;;;;;1.67;0.60;;;;;;;-145.70;100.00;63560.63;5071693;28;20052;-62
2022/09/12 00:41:32;;;;;;;2.00;0.70;;;;;;;-145.70;100.00;63560.63;5091949;27;20032;-61
2022/09/12 00:44:04;;;;;;;3.28;0.75;;;;;;;-145.70;100.00;63560.63;5075774;28;20399;-61
2022/09/12 00:46:38;;;;;;;2.15;0.65;;;;;;;-145.70;100.00;63560.63;5079102;28;20442;-61
2022/09/12 00:49:31;;;;;;;2.55;0.80;;;;;;;-145.70;100.00;63560.63;5075270;28;20021;-61
2022/09/12 00:52:09;;;;;;;2.85;0.60;;;;;;;-145.70;100.00;63560.63;5069787;28;20028;-61
2022/09/12 00:54:45;;;;;;;1.55;0.52;;;;;;;-145.70;100.00;63560.63;5077984;28;20036;-61
2022/09/12 00:57:12;;;;;;;1.30;0.50;;;;;;;-145.70;100.00;63560.63;5067755;28;20587;-61
2022/09/12 00:59:40;;;;;;;2.83;0.60;;;;;;;-145.70;100.00;63560.63;5079649;28;20085;-61
2022/09/12 01:02:06;;;;;;;2.35;0.70;;;;;;;-145.70;100.00;63560.63;5108124;27;20035;-60
2022/09/12 01:04:35;;;;;;;3.28;0.90;;;;;;;-145.70;100.00;63560.63;5056993;28;20028;-61
2022/09/12 01:07:02;;;;;;;1.23;0.50;;;;;;;-145.70;100.00;63560.63;5079500;28;20414;-62
2022/09/12 01:09:28;;;;;;;4.47;0.80;;;;;;;-145.70;100.00;63560.63;5067670;28;20679;-61
2022/09/12 01:11:54;;;;;;;2.05;0.60;;;;;;;-145.70;100.00;63560.63;5081310;28;20128;-62
2022/09/12 01:14:20;;;;;;;2.47;0.70;;;;;;;-145.70;100.00;63560.63;5080827;28;20130;-62
2022/09/12 01:16:46;;;;;;;3.40;0.60;;;;;;;-145.70;100.00;63560.63;5082135;28;20043;-61
2022/09/12 01:19:38;;;;;;;2.05;0.65;;;;;;;-145.70;100.00;63560.63;5073171;28;20036;-62
2022/09/12 01:22:29;;;;;;;2.22;0.60;;;;;;;-145.70;100.00;63560.63;5056416;28;20767;-61
2022/09/12 01:25:11;;;;;;;2.25;0.77;;;;;;;-145.70;100.00;63560.63;5066548;28;20027;-62
2022/09/12 01:27:42;;;;;;;2.63;0.80;;;;;;;-145.70;100.00;63560.63;5073136;28;20119;-62
2022/09/12 01:30:39;;;;;;;1.73;0.60;;;;;;;-145.70;100.00;63560.63;5054059;28;20066;-61
2022/09/12 01:33:27;;;;;;;2.25;1.08;;;;;;;-145.70;100.00;63560.63;5064516;28;20031;-62
2022/09/12 01:36:19;;;;;;;3.00;0.70;;;;;;;-145.70;100.00;63560.63;5075509;28;20028;-62
2022/09/12 01:39:05;;;;;;;2.55;0.60;;;;;;;-145.70;100.00;63560.63;5043112;28;20178;-61
2022/09/12 01:41:57;;;;;;;2.20;0.70;;;;;;;-145.70;100.00;63560.63;5055625;28;20043;-61
2022/09/12 01:44:40;;;;;;;2.47;0.60;;;;;;;-145.70;100.00;63560.63;5073515;28;20181;-61
2022/09/12 01:47:22;;;;;;;3.00;0.80;;;;;;;-145.70;100.00;63560.63;5064437;28;20112;-61
2022/09/12 01:49:54;;;;;;;1.70;0.60;;;;;;;-145.70;100.00;63560.63;5074015;28;20078;-62
2022/09/12 01:52:53;;;;;;;1.90;0.60;;;;;;;-145.70;100.00;63560.63;5074679;28;20581;-61
2022/09/12 01:55:24;;;;;;;1.65;0.50;;;;;;;-145.70;100.00;63560.63;5082637;28;20139;-61
2022/09/12 01:58:02;;;;;;;0.95;0.50;;;;;;;-145.70;100.00;63560.63;5070357;28;20081;-62
2022/09/12 02:00:28;;;;;;;2.17;0.60;;;;;;;-145.70;100.00;63560.63;5075701;28;20031;-61
2022/09/12 02:03:14;;;;;;;1.35;0.60;;;;;;;-145.70;100.00;63560.63;5051202;28;20028;-62
2022/09/12 02:05:48;;;;;;;2.05;0.57;;;;;;;-145.70;100.00;63560.63;5075759;28;20160;-60
2022/09/12 02:08:16;;;;;;;4.75;0.82;;;;;;;-145.70;100.00;63560.63;5065400;28;20036;-62
2022/09/12 02:11:04;;;;;;;1.02;0.40;;;;;;;-145.70;100.00;63560.63;5070710;28;20040;-61
2022/09/12 02:13:48;;;;;;;1.55;0.52;;;;;;;-145.70;100.00;63560.63;5068402;28;20123;-62
2022/09/12 02:16:35;;;;;;;1.98;0.63;;;;;;;-145.70;100.00;63560.63;5082679;28;20067;-60
2022/09/12 02:19:11;;;;;;;3.05;0.60;;;;;;;-145.70;100.00;63560.63;5070126;28;20067;-60
2022/09/12 02:21:39;;;;;;;2.90;0.55;;;;;;;-145.70;100.00;63560.63;5076831;28;20611;-60
2022/09/12 02:24:07;;;;;;;1.95;0.60;;;;;;;-145.70;100.00;63560.63;5072857;28;20032;-66
2022/09/12 02:26:35;;;;;;;2.33;0.65;;;;;;;-145.70;100.00;63560.63;5080298;28;20093;-60
2022/09/12 02:29:00;;;;;;;3.85;0.75;;;;;;;-145.70;100.00;63560.63;5059257;28;20025;-61
2022/09/12 02:31:33;;;;;;;1.98;0.63;;;;;;;-145.70;100.00;63560.63;5078550;28;20039;-61
2022/09/12 02:34:22;;;;;;;4.13;0.70;;;;;;;-145.70;100.00;63560.63;5074894;28;20055;-60
2022/09/12 02:36:54;;;;;;;2.20;0.60;;;;;;;-145.70;100.00;63560.63;5078587;28;20069;-61
2022/09/12 02:39:20;;;;;;;1.70;0.60;;;;;;;-145.70;100.00;63560.63;5080747;28;20027;-60
2022/09/12 02:41:54;;;;;;;2.15;0.60;;;;;;;-145.70;100.00;63560.63;5055781;28;20854;-60
2022/09/12 02:44:20;;;;;;;1.80;0.60;;;;;;;-145.70;100.00;63560.63;5074491;28;20036;-60
2022/09/12 02:46:53;;;;;;;1.75;0.50;;;;;;;-145.70;100.00;63560.63;5082735;28;20042;-64
2022/09/12 02:49:18;;;;;;;2.75;0.65;;;;;;;-145.70;100.00;63560.63;5072027;28;20036;-59
2022/09/12 02:51:45;;;;;;;2.45;0.70;;;;;;;-145.70;100.00;63560.63;5079842;28;20024;-60
2022/09/12 02:54:11;;;;;;;3.20;0.60;;;;;;;-145.70;100.00;63560.63;5074578;28;20032;-59
2022/09/12 02:56:40;;;;;;;4.15;0.65;;;;;;;-145.70;100.00;63560.63;5075107;28;20035;-60
2022/09/12 02:59:07;;;;;;;2.05;0.60;;;;;;;-145.70;100.00;63560.63;5084913;28;20116;-60
2022/09/12 03:01:48;;;;;;;2.30;0.65;;;;;;;-145.70;100.00;63560.63;5083895;28;20047;-61
2022/09/12 03:04:47;;;;;;;1.98;0.52;;;;;;;-145.70;100.00;63560.63;5076659;28;20049;-60
2022/09/12 03:07:28;;;;;;;2.30;0.77;;;;;;;-145.70;100.00;63560.63;5043466;28;20851;-60
2022/09/12 03:10:05;;;;;;;2.03;0.57;;;;;;;-145.70;100.00;63560.63;5073301;28;20110;-60
2022/09/12 03:12:42;;;;;;;3.47;0.77;;;;;;;-145.70;100.00;63560.63;5080239;28;20691;-59
2022/09/12 03:15:39;;;;;;;2.60;0.80;;;;;;;-145.70;100.00;63560.63;5079561;28;20565;-60
2022/09/12 03:18:42;;;;;;;2.53;0.63;;;;;;;-145.70;100.00;63560.63;5090735;28;20016;-60
2022/09/12 03:21:19;;;;;;;2.67;0.70;;;;;;;-145.70;100.00;63560.63;5067386;28;20067;-60
2022/09/12 03:24:34;;;;;;;2.65;0.60;;;;;;;-145.70;100.00;63560.63;5072699;28;20028;-60
2022/09/12 03:27:16;;;;;;;2.25;0.68;;;;;;;-145.70;100.00;63560.63;5030262;28;20530;-63
2022/09/12 03:29:42;;;;;;;2.13;0.63;;;;;;;-145.70;100.00;63560.63;5012861;28;20590;-59
2022/09/12 03:32:08;;;;;;;5.80;0.75;;;;;;;-145.70;100.00;63560.63;5056689;28;20368;-61
2022/09/12 03:34:33;;;;;;;1.92;0.60;;;;;;;-145.70;100.00;63560.63;5078047;28;20638;-60
2022/09/12 03:36:59;;;;;;;1.88;0.60;;;;;;;-145.70;100.00;63560.63;5080615;28;20111;-60
2022/09/12 03:39:25;;;;;;;1.67;0.52;;;;;;;-145.70;100.00;63560.63;5074994;28;20031;-60
2022/09/12 03:41:51;;;;;;;2.38;0.70;;;;;;;-145.70;100.00;63560.63;5081539;28;20088;-61
2022/09/12 03:44:17;;;;;;;1.60;0.63;;;;;;;-145.70;100.00;63560.63;5078337;28;20020;-61
2022/09/12 03:46:43;;;;;;;2.17;0.60;;;;;;;-145.70;100.00;63560.63;5076407;28;20028;-60
2022/09/12 03:49:09;;;;;;;2.65;0.70;;;;;;;-145.70;100.00;63560.63;5060707;28;20024;-59
2022/09/12 03:51:35;;;;;;;2.70;0.60;;;;;;;-145.70;100.00;63560.63;5055795;28;20233;-60
2022/09/12 03:54:00;;;;;;;4.35;0.70;;;;;;;-145.70;100.00;63560.63;5070215;28;20035;-63
2022/09/12 03:56:26;;;;;;;4.30;0.70;;;;;;;-145.70;100.00;63560.63;5073233;28;20039;-62
2022/09/12 03:58:51;;;;;;;3.90;0.60;;;;;;;-145.70;100.00;63560.63;5057558;28;20043;-61
2022/09/12 04:01:18;;;;;;;4.50;1.00;;;;;;;-145.70;100.00;63560.63;5075238;28;20259;-61
2022/09/12 04:03:46;;;;;;;3.42;0.60;;;;;;;-145.70;100.00;63560.63;5086207;28;20718;-62
2022/09/12 04:06:14;;;;;;;3.42;0.70;;;;;;;-145.70;100.00;63560.63;5073930;28;20047;-62
2022/09/12 04:08:40;;;;;;;1.77;0.70;;;;;;;-145.70;100.00;63560.63;5074452;28;20048;-59
2022/09/12 04:11:11;;;;;;;3.08;0.80;;;;;;;-145.70;100.00;63560.63;5073291;28;20032;-61
2022/09/12 04:13:38;;;;;;;2.10;0.70;;;;;;;-145.70;100.00;63560.63;5103958;27;20036;-63
2022/09/12 04:16:04;;;;;;;2.53;0.65;;;;;;;-145.70;100.00;63560.63;5074122;28;20032;-60
2022/09/12 04:18:31;;;;;;;1.38;0.50;;;;;;;-145.70;100.00;63560.63;5071024;28;20039;-59
2022/09/12 04:20:56;;;;;;;3.00;0.82;;;;;;;-145.70;100.00;63560.63;5075445;28;20600;-59
2022/09/12 04:23:22;;;;;;;2.75;0.80;;;;;;;-145.70;100.00;63560.63;5059375;28;20047;-60
2022/09/12 04:25:55;;;;;;;2.53;0.75;;;;;;;-145.70;100.00;63560.63;5076553;28;20212;-60
2022/09/12 04:28:21;;;;;;;2.95;0.60;;;;;;;-145.70;100.00;63560.63;5058802;28;20043;-60
2022/09/12 04:30:46;;;;;;;2.72;0.70;;;;;;;-145.70;100.00;63560.63;5074806;28;20092;-59
2022/09/12 04:33:11;;;;;;;2.53;0.75;;;;;;;-145.70;100.00;63560.63;5067237;28;20592;-59
2022/09/12 04:35:37;;;;;;;2.95;0.73;;;;;;;-145.70;100.00;63560.63;5071132;28;20059;-59
2022/09/12 04:38:02;;;;;;;2.25;0.80;;;;;;;-145.70;100.00;63560.63;5086250;28;20798;-61
2022/09/12 04:40:32;;;;;;;1.92;0.65;;;;;;;-145.70;100.00;63560.63;5072201;28;20032;-61
2022/09/12 04:42:57;;;;;;;2.67;0.73;;;;;;;-145.70;100.00;63560.63;5071605;28;20024;-60
2022/09/12 04:45:23;;;;;;;2.15;0.70;;;;;;;-145.70;100.00;63560.63;5076198;28;20608;-61
2022/09/12 04:47:48;;;;;;;1.58;0.60;;;;;;;-145.70;100.00;63560.63;5076275;28;20111;-62
2022/09/12 04:50:14;;;;;;;3.55;0.82;;;;;;;-145.70;100.00;63560.63;5073342;28;20040;-60
2022/09/12 04:52:40;;;;;;;1.65;0.63;;;;;;;-145.70;100.00;63560.63;5075770;28;20032;-61
2022/09/12 04:55:07;;;;;;;1.90;0.60;;;;;;;-145.70;100.00;63560.63;5079567;28;20675;-60
2022/09/12 04:57:32;;;;;;;3.28;0.70;;;;;;;-145.70;100.00;63560.63;5086050;28;20582;-60
2022/09/12 04:59:58;;;;;;;3.17;0.80;;;;;;;-145.70;100.00;63560.63;5057821;28;20111;-59
2022/09/12 05:02:24;;;;;;;4.38;0.80;;;;;;;-145.70;100.00;63560.63;5043067;28;20028;-61
2022/09/12 05:04:50;;;;;;;2.38;0.80;;;;;;;-145.70;100.00;63560.63;5071902;28;20020;-62
2022/09/12 05:07:15;;;;;;;1.92;0.60;;;;;;;-145.70;100.00;63560.63;5073443;28;20031;-61
2022/09/12 05:09:40;;;;;;;1.70;0.70;;;;;;;-145.70;100.00;63560.63;5073845;28;20413;-61
2022/09/12 05:12:06;;;;;;;1.77;0.63;;;;;;;-145.70;100.00;63560.63;5075778;28;20032;-62
2022/09/12 05:14:32;;;;;;;2.67;0.70;;;;;;;-145.70;100.00;63560.63;5066642;28;20109;-60
2022/09/12 05:17:00;;;;;;;1.52;0.60;;;;;;;-145.70;100.00;63560.63;5067199;28;20663;-60
2022/09/12 05:19:26;;;;;;;2.38;0.75;;;;;;;-145.70;100.00;63560.63;5060073;28;20510;-63
2022/09/12 05:21:51;;;;;;;3.55;0.73;;;;;;;-145.70;100.00;63560.63;5074609;28;20032;-61
2022/09/12 05:24:17;;;;;;;2.67;0.80;;;;;;;-145.70;100.00;63560.63;5100129;27;20030;-59
2022/09/12 05:26:42;;;;;;;2.03;0.65;;;;;;;-145.70;100.00;63560.63;5099319;27;20028;-61
2022/09/12 05:29:08;;;;;;;2.03;0.68;;;;;;;-145.70;100.00;63560.63;5078166;28;20040;-60
2022/09/12 05:31:34;;;;;;;4.10;0.90;;;;;;;-145.70;100.00;63560.63;5053352;28;20046;-62
2022/09/12 05:33:59;;;;;;;2.25;0.60;;;;;;;-145.70;100.00;63560.63;5005253;28;20109;-62
2022/09/12 05:36:28;;;;;;;1.95;0.70;;;;;;;-145.70;100.00;63560.63;5066700;28;20032;-60
2022/09/12 05:38:54;;;;;;;2.60;0.63;;;;;;;-145.70;100.00;63560.63;5068481;28;20227;-64
2022/09/12 05:41:23;;;;;;;2.65;0.77;;;;;;;-145.70;100.00;63560.63;5066247;28;20058;-61
2022/09/12 05:43:53;;;;;;;3.28;0.68;;;;;;;-145.70;100.00;63560.63;5064306;28;20560;-60
2022/09/12 05:46:21;;;;;;;1.75;0.80;;;;;;;-145.70;100.00;63560.63;5064944;28;20021;-61
2022/09/12 05:48:47;;;;;;;2.83;0.77;;;;;;;-145.70;100.00;63560.63;5102259;27;20024;-61
2022/09/12 05:51:21;;;;;;;2.40;0.75;;;;;;;-145.70;100.00;63560.63;5056231;28;20790;-61
2022/09/12 05:53:50;;;;;;;1.70;0.60;;;;;;;-145.70;100.00;63560.63;5025357;28;20028;-60
2022/09/12 05:56:18;;;;;;;4.97;0.77;;;;;;;-145.70;100.00;63560.63;5070959;28;20368;-60
2022/09/12 05:58:46;;;;;;;2.15;0.70;;;;;;;-145.70;100.00;63560.63;5053052;28;20727;-60
2022/09/12 06:01:14;;;;;;;3.17;0.80;;;;;;;-145.70;100.00;63560.63;5077909;28;20047;-60
2022/09/12 06:03:43;;;;;;;3.35;0.70;;;;;;;-145.70;100.00;63560.63;5079902;28;20469;-62
2022/09/12 06:06:12;;;;;;;2.67;0.80;;;;;;;-145.70;100.00;63560.63;5075674;28;20067;-60
2022/09/12 06:08:37;;;;;;;3.53;0.80;;;;;;;-145.70;100.00;63560.63;5109552;27;20082;-61
2022/09/12 06:11:04;;;;;;;2.25;0.65;;;;;;;-145.70;100.00;63560.63;5077621;28;20483;-60
2022/09/12 06:13:35;;;;;;;2.03;0.63;;;;;;;-145.70;100.00;63560.63;5077554;28;20528;-61
2022/09/12 06:16:12;;;;;;;1.90;0.70;;;;;;;-145.70;100.00;63560.63;5081604;28;20039;-60
2022/09/12 06:18:38;;;;;;;3.40;0.70;;;;;;;-145.70;100.00;63560.63;5073861;28;20084;-62
2022/09/12 06:21:05;;;;;;;2.53;0.77;;;;;;;-145.70;100.00;63560.63;5070196;28;20207;-61
2022/09/12 06:23:31;;;;;;;4.30;0.90;;;;;;;-145.70;100.00;63560.63;5063408;28;20024;-61
2022/09/12 06:25:56;;;;;;;2.40;0.90;;;;;;;-145.70;100.00;63560.63;5078083;28;20032;-60
2022/09/12 06:28:22;;;;;;;3.15;0.80;;;;;;;-145.70;100.00;63560.63;5076557;28;20063;-61
2022/09/12 06:30:47;;;;;;;2.78;0.77;;;;;;;-145.70;100.00;63560.63;5074708;28;20555;-62
2022/09/12 06:33:14;;;;;;;2.80;0.88;;;;;;;-145.70;100.00;63560.63;5073399;28;20033;-60
2022/09/12 06:35:39;;;;;;;3.80;0.90;;;;;;;-145.70;100.00;63560.63;5111550;27;20758;-62
2022/09/12 06:38:05;;;;;;;3.45;0.60;;;;;;;-145.70;100.00;63560.63;5069702;28;20474;-61
2022/09/12 06:40:31;;;;;;;2.33;0.60;;;;;;;-145.70;100.00;63560.63;5055418;28;20620;-64
2022/09/12 06:42:56;;;;;;;1.65;0.60;;;;;;;-145.70;100.00;63560.63;5055772;28;20135;-60
2022/09/12 06:45:22;;;;;;;4.60;1.13;;;;;;;-145.70;100.00;63560.63;5065568;28;20035;-62
2022/09/12 06:47:47;;;;;;;2.13;0.60;;;;;;;-145.70;100.00;63560.63;5076666;28;20028;-60
2022/09/12 06:50:13;;;;;;;1.85;0.63;;;;;;;-145.70;100.00;63560.63;5074090;28;20042;-62
2022/09/12 06:52:38;;;;;;;3.03;0.85;;;;;;;-145.70;100.00;63560.63;5059286;28;20429;-62
2022/09/12 06:55:04;;;;;;;2.85;0.80;;;;;;;-145.70;100.00;63560.63;5058307;28;20111;-63
2022/09/12 06:57:31;;;;;;;3.38;0.65;;;;;;;-145.70;100.00;63560.63;5065843;28;20069;-62
2022/09/12 06:59:57;;;;;;;2.28;0.70;;;;;;;-145.70;100.00;63560.63;5054683;28;20562;-64
2022/09/12 07:02:24;;;;;;;2.65;0.75;;;;;;;-145.70;100.00;63560.63;5071258;28;20105;-63
2022/09/12 07:04:50;;;;;;;1.88;0.70;;;;;;;-145.70;100.00;63560.63;5060052;28;20081;-60
2022/09/12 07:07:16;;;;;;;2.88;0.90;;;;;;;-145.70;100.00;63560.63;5078492;28;20104;-60
2022/09/12 07:09:41;;;;;;;1.30;0.50;;;;;;;-145.70;100.00;63560.63;5077294;28;20036;-61
2022/09/12 07:12:07;;;;;;;3.53;0.80;;;;;;;-145.70;100.00;63560.63;5081893;28;20067;-61
2022/09/12 07:14:32;;;;;;;1.90;0.68;;;;;;;-145.70;100.00;63560.63;5079775;28;20578;-62
2022/09/12 07:16:58;;;;;;;3.65;0.82;;;;;;;-145.70;100.00;63560.63;5074662;28;20111;-61
2022/09/12 07:19:23;;;;;;;2.83;0.80;;;;;;;-145.70;100.00;63560.63;5082750;28;20442;-62
2022/09/12 07:21:49;;;;;;;3.20;0.77;;;;;;;-145.70;100.00;63560.63;5082423;28;20038;-61
2022/09/12 07:24:14;;;;;;;2.40;0.70;;;;;;;-145.70;100.00;63560.63;5004183;28;20028;-61
2022/09/12 07:26:40;;;;;;;3.25;0.80;;;;;;;-145.70;100.00;63560.63;4953888;28;20131;-61
2022/09/12 07:29:08;;;;;;;2.85;0.80;;;;;;;-145.70;100.00;63560.63;5070551;28;20043;-62
2022/09/12 07:31:33;;;;;;;2.78;0.73;;;;;;;-145.70;100.00;63560.63;5086115;28;20032;-62
2022/09/12 07:33:59;;;;;;;2.03;0.70;;;;;;;-145.70;100.00;63560.63;5073733;28;20036;-62
2022/09/12 07:36:24;;;;;;;3.50;1.00;;;;;;;-145.70;100.00;63560.63;5070032;28;20035;-61
2022/09/12 07:38:54;;;;;;;5.15;1.00;;;;;;;-145.70;100.00;63560.63;5070688;28;20490;-62
2022/09/12 07:41:25;;;;;;;2.35;0.75;;;;;;;-145.70;100.00;63560.63;5078893;28;20031;-63
2022/09/12 07:43:52;;;;;;;2.60;0.73;;;;;;;-145.70;100.00;63560.63;5067400;28;20066;-62
2022/09/12 07:46:17;;;;;;;7.05;0.95;;;;;;;-145.70;100.00;63560.63;5077605;28;20020;-59
2022/09/12 07:48:44;;;;;;;2.72;0.70;;;;;;;-145.70;100.00;63560.63;5076840;28;20426;-61
2022/09/12 07:51:10;;;;;;;3.42;0.82;;;;;;;-145.70;100.00;63560.63;5068703;28;20102;-59
2022/09/12 07:53:38;;;;;;;5.70;1.75;;;;;;;-145.70;100.00;63560.63;5105036;27;20105;-61
2022/09/12 07:56:04;;;;;;;3.05;1.00;;;;;;;-145.70;100.00;63560.63;5069064;28;20035;-61
2022/09/12 07:58:31;;;;;;;4.95;1.25;;;;;;;-145.70;100.00;63560.63;5080588;28;20097;-60
2022/09/12 08:01:08;;;;;;;3.45;1.02;;;;;;;-145.70;100.00;63560.63;5068666;28;20025;-62
2022/09/12 08:03:37;;;;;;;3.10;0.90;;;;;;;-145.70;100.00;63560.63;4976156;28;20028;-61
2022/09/12 08:06:08;;;;;;;3.53;1.20;;;;;;;-145.70;100.00;63560.63;5050425;28;20102;-59
2022/09/12 08:08:34;;;;;;;3.47;1.00;;;;;;;-145.70;100.00;63560.63;5067179;28;20060;-61
2022/09/12 08:11:01;;;;;;;2.58;0.90;;;;;;;-145.70;100.00;63560.63;5070654;28;20098;-61
2022/09/12 08:13:29;;;;;;;2.92;0.98;;;;;;;-145.70;100.00;63560.63;5072923;28;20305;-60
2022/09/12 08:15:59;;;;;;;2.72;0.80;;;;;;;-145.70;100.00;63560.63;5065202;28;20490;-60
2022/09/12 08:18:28;;;;;;;2.83;0.90;;;;;;;-145.70;100.00;63560.63;5104985;27;20028;-61
2022/09/12 08:20:58;;;;;;;2.78;0.75;;;;;;;-145.70;100.00;63560.63;5100380;27;20016;-62
2022/09/12 08:23:23;;;;;;;2.00;0.77;;;;;;;-145.70;100.00;63560.63;5042253;27;20098;-60
2022/09/12 08:25:49;;;;;;;2.20;0.75;;;;;;;-145.70;100.00;63560.63;5071101;28;20669;-60
2022/09/12 08:28:15;;;;;;;3.13;1.00;;;;;;;-145.70;100.00;63560.63;5062423;28;20713;-60
2022/09/12 08:30:40;;;;;;;3.33;0.70;;;;;;;-145.70;100.00;63560.63;5070875;28;20043;-60
2022/09/12 08:33:06;;;;;;;2.70;0.80;;;;;;;-145.70;100.00;63560.63;5067036;28;20035;-59
2022/09/12 08:35:32;;;;;;;3.47;0.80;;;;;;;-145.70;100.00;63560.63;5066819;28;20487;-60
2022/09/12 08:37:57;;;;;;;2.72;0.77;;;;;;;-145.70;100.00;63560.63;5069190;28;20025;-60
2022/09/12 08:40:23;;;;;;;2.33;0.70;;;;;;;-145.70;100.00;63560.63;5062081;28;20474;-60
2022/09/12 08:43:05;;;;;;;1.65;0.60;;;;;;;-145.70;100.00;63560.63;5099045;27;20034;-59
2022/09/12 08:45:41;;;;;;;3.38;0.90;;;;;;;-145.70;100.00;63560.63;5051997;28;20114;-61
2022/09/12 08:48:08;;;;;;;2.20;0.73;;;;;;;-145.70;100.00;63560.63;5066411;28;20037;-63
2022/09/12 08:50:34;;;;;;;1.98;0.70;;;;;;;-145.70;100.00;63560.63;5103258;27;20278;-60
2022/09/12 08:53:03;;;;;;;2.50;0.70;;;;;;;-145.70;100.00;63560.63;5057271;28;20036;-64
2022/09/12 08:55:58;;;;;;;3.55;0.70;;;;;;;-145.70;100.00;63560.63;5103953;27;20041;-62
2022/09/12 08:58:24;;;;;;;3.30;1.10;;;;;;;-145.70;100.00;63560.63;5052329;28;20120;-61
2022/09/12 09:01:08;;;;;;;2.13;0.70;;;;;;;-145.70;100.00;63560.63;5071203;28;20616;-62
2022/09/12 09:03:55;;;;;;;2.92;0.82;;;;;;;-145.70;100.00;63560.63;5076564;28;20028;-60
2022/09/12 09:06:26;;;;;;;2.08;0.75;;;;;;;-145.70;100.00;63560.63;5077554;28;20031;-60
2022/09/12 09:09:12;;;;;;;2.58;0.80;;;;;;;-145.70;100.00;63560.63;5079461;28;20427;-61
2022/09/12 09:12:05;;;;;;;2.38;0.68;;;;;;;-145.70;100.00;63560.63;5072001;28;20028;-61
2022/09/12 09:15:10;;;;;;;2.17;0.80;;;;;;;-145.70;100.00;63560.63;5071563;28;20054;-61
2022/09/12 09:17:59;;;;;;;1.83;0.60;;;;;;;-145.70;100.00;63560.63;5072465;28;20636;-61
2022/09/12 09:20:30;;;;;;;2.58;0.70;;;;;;;-145.70;100.00;63560.63;5049553;28;20047;-62
2022/09/12 09:23:02;;;;;;;3.35;0.90;;;;;;;-145.70;100.00;63560.63;5068063;28;20032;-61
2022/09/12 09:25:50;;;;;;;2.92;0.63;;;;;;;-145.70;100.00;63560.63;5044122;28;20045;-61
2022/09/12 09:28:22;;;;;;;1.73;0.70;;;;;;;-145.70;100.00;63560.63;5074293;28;20024;-62
2022/09/12 09:30:49;;;;;;;1.67;0.60;;;;;;;-145.70;100.00;63560.63;5077080;28;20036;-61
2022/09/12 09:33:20;;;;;;;1.75;0.65;;;;;;;-145.70;100.00;63560.63;5065076;28;20120;-61
2022/09/12 09:35:53;;;;;;;2.28;0.70;;;;;;;-145.70;100.00;63560.63;5077946;28;20410;-61
2022/09/12 09:38:38;;;;;;;2.13;0.63;;;;;;;-145.70;100.00;63560.63;5064776;28;20116;-61
2022/09/12 09:41:19;;;;;;;2.20;0.70;;;;;;;-145.70;100.00;63560.63;5078755;28;20498;-61
2022/09/12 09:43:44;;;;;;;2.88;0.80;;;;;;;-145.70;100.00;63560.63;5072966;28;20515;-61
2022/09/12 09:46:11;;;;;;;3.22;0.65;;;;;;;-145.70;100.00;63560.63;5072749;28;20032;-62
2022/09/12 09:48:40;;;;;;;3.33;0.90;;;;;;;-145.70;100.00;63560.63;5079931;28;20482;-61
2022/09/12 09:51:08;;;;;;;2.78;0.90;;;;;;;-145.70;100.00;63560.63;5080626;28;20036;-61
2022/09/12 09:53:53;;;;;;;4.80;0.90;;;;;;;-145.70;100.00;63560.63;5080179;28;20032;-61
2022/09/12 09:56:41;;;;;;;2.85;0.82;;;;;;;-145.70;100.00;63560.63;5072123;28;20039;-60
2022/09/12 09:59:28;;;;;;;2.33;0.73;;;;;;;-145.70;100.00;63560.63;5058207;28;20043;-62
2022/09/12 10:02:02;;;;;;;3.55;0.90;;;;;;;-145.70;100.00;63560.63;5072304;28;20054;-61
2022/09/12 10:04:39;;;;;;;2.80;0.90;;;;;;;-145.70;100.00;63560.63;5077239;28;20319;-61
2022/09/12 10:07:05;;;;;;;3.15;0.88;;;;;;;-145.70;100.00;63560.63;5073734;28;20016;-62
2022/09/12 10:09:32;;;;;;;2.17;0.80;;;;;;;-145.70;100.00;63560.63;5063180;28;20031;-61
2022/09/12 10:12:00;;;;;;;2.70;0.70;;;;;;;-145.70;100.00;63560.63;5082561;28;20032;-61
2022/09/12 10:14:35;;;;;;;2.45;0.90;;;;;;;-145.70;100.00;63560.63;5077038;28;20123;-62
2022/09/12 10:17:21;;;;;;;2.22;0.80;;;;;;;-145.70;100.00;63560.63;5092637;27;20140;-62
2022/09/12 10:19:47;;;;;;;3.72;1.10;;;;;;;-145.70;100.00;63560.63;5075547;28;20020;-61
2022/09/12 10:22:17;;;;;;;4.13;1.10;;;;;;;-145.70;100.00;63560.63;5051737;28;20033;-61
2022/09/12 10:24:47;;;;;;;3.80;1.10;;;;;;;-145.70;100.00;63560.63;5061712;28;20031;-61
2022/09/12 10:27:15;;;;;;;2.95;1.10;;;;;;;-145.70;100.00;63560.63;5077974;28;20015;-61
2022/09/12 10:29:46;;;;;;;3.72;1.00;;;;;;;-145.70;100.00;63560.63;5074172;28;20031;-61
2022/09/12 10:32:18;;;;;;;5.18;1.30;;;;;;;-145.70;100.00;63560.63;5062444;28;20032;-62
2022/09/12 10:34:44;;;;;;;3.90;1.20;;;;;;;-145.70;100.00;63560.63;5043990;28;20802;-61
2022/09/12 10:37:18;;;;;;;3.90;1.23;;;;;;;-145.70;100.00;63560.63;5081393;28;20027;-62
2022/09/12 10:39:52;;;;;;;3.47;1.40;;;;;;;-145.70;100.00;63560.63;5074738;28;20021;-61
2022/09/12 10:42:44;;;;;;;3.70;1.58;;;;;;;-145.70;100.00;63560.63;5075318;28;20042;-60
2022/09/12 10:45:39;;;;;;;3.88;1.42;;;;;;;-145.70;100.00;63560.63;5075540;28;20024;-61
2022/09/12 10:48:26;;;;;;;4.22;1.35;;;;;;;-145.70;100.00;63560.63;5076034;28;20229;-61
2022/09/12 10:50:51;;;;;;;3.28;1.50;;;;;;;-145.70;100.00;63560.63;5080149;28;20032;-61
2022/09/12 10:53:19;;;;;;;6.07;1.63;;;;;;;-145.70;100.00;63560.63;5086098;28;20751;-61
2022/09/12 10:56:09;;;;;;;4.10;1.60;;;;;;;-145.70;100.00;63560.63;5076217;28;20047;-61
2022/09/12 10:58:54;;;;;;;4.47;1.90;;;;;;;-145.70;100.00;63560.63;5081859;28;20063;-61
2022/09/12 11:01:44;;;;;;;4.30;1.80;;;;;;;-145.70;100.00;63560.63;5083111;28;20092;-61
2022/09/12 11:04:33;;;;;;;4.47;1.83;;;;;;;-145.70;100.00;63560.63;5103786;27;20837;-62
2022/09/12 11:07:21;;;;;;;4.03;1.70;;;;;;;-145.70;100.00;63560.63;5067356;28;20028;-61
2022/09/12 11:09:52;;;;;;;6.57;2.00;;;;;;;-145.70;100.00;63560.63;5074260;28;20032;-61
2022/09/12 11:12:24;;;;;;;4.40;1.50;;;;;;;-145.70;100.00;63560.63;5079944;28;20040;-61
2022/09/12 11:14:55;;;;;;;4.90;1.90;;;;;;;-145.70;100.00;63560.63;5072423;28;20564;-61
2022/09/12 11:17:20;;;;;;;4.60;2.00;;;;;;;-145.70;100.00;63560.63;5077861;28;20028;-60
2022/09/12 11:20:14;;;;;;;3.50;1.50;;;;;;;-145.70;100.00;63560.63;5077420;28;20125;-60
2022/09/12 11:23:13;;;;;;;4.90;1.52;;;;;;;-145.70;100.00;63560.63;5075367;28;20065;-60
2022/09/12 11:25:55;;;;;;;4.65;1.45;;;;;;;-145.70;100.00;63560.63;5073250;28;20036;-61
2022/09/12 11:28:42;;;;;;;3.60;1.30;;;;;;;-145.70;100.00;63560.63;5078222;28;20028;-63